Erwin, South Dakota
Current Conditions -  °F | °C
As of 6:53 AM on Saturday 25 Oct 2014 (Local Time) from KATY Reporting Station
Clear Clear  
Wind Chill: 44°   Ceiling: Unl
Heat Index: 47°   Visibility: 10mi
Dew Point: 38°   Wind: 7mph
Humidity: 71%   Direction: 310°NW
Pressure: 30.1"   Gusts: NA
Location:  44.49°N, 97.45°W
Report Text: KATY 251153Z AUTO 31006KT 10SM CLR 08/03 A3010 RMK AO2 SLP196 T00830033 10128 20067 53009 $
Loading
Personal Weather Stations






























Interactive Weather Map
Tropical Storm Tracking
New forecast layout! Learn more

10-Day Weather Forecast

Advertisements
Track Severe Weather on mobile